sensor_id;sensor_type;location;lat;lon;timestamp;pressure;altitude;pressure_sealevel;temperature;humidity
39435;BME280;66825;51.880;-0.518;2023-04-25T00:01:11;100614.50;;;17.53;38.76
39435;BME280;66825;51.880;-0.518;2023-04-25T00:03:38;100610.16;;;17.52;38.68
39435;BME280;66825;51.880;-0.518;2023-04-25T00:06:05;100621.06;;;17.52;38.64
39435;BME280;66825;51.880;-0.518;2023-04-25T00:08:32;100614.28;;;17.49;38.58
39435;BME280;66825;51.880;-0.518;2023-04-25T00:10:58;100615.47;;;17.43;38.55
39435;BME280;66825;51.880;-0.518;2023-04-25T00:13:24;100626.00;;;17.50;38.63
39435;BME280;66825;51.880;-0.518;2023-04-25T00:15:51;100611.75;;;17.39;38.78
39435;BME280;66825;51.880;-0.518;2023-04-25T00:18:19;100624.69;;;17.47;38.56
39435;BME280;66825;51.880;-0.518;2023-04-25T00:20:45;100626.59;;;17.46;38.67
39435;BME280;66825;51.880;-0.518;2023-04-25T00:23:13;100620.13;;;17.42;38.79
39435;BME280;66825;51.880;-0.518;2023-04-25T00:25:47;100625.78;;;17.46;38.53
39435;BME280;66825;51.880;-0.518;2023-04-25T00:28:13;100616.78;;;17.45;38.70
39435;BME280;66825;51.880;-0.518;2023-04-25T00:30:39;100600.91;;;17.34;38.65
39435;BME280;66825;51.880;-0.518;2023-04-25T00:33:05;100609.06;;;17.34;38.99
39435;BME280;66825;51.880;-0.518;2023-04-25T00:35:31;100611.66;;;17.44;38.83
39435;BME280;66825;51.880;-0.518;2023-04-25T00:37:57;100615.47;;;17.43;38.92
39435;BME280;66825;51.880;-0.518;2023-04-25T00:40:22;100611.97;;;17.42;38.53
39435;BME280;66825;51.880;-0.518;2023-04-25T00:42:49;100606.66;;;17.32;38.60
39435;BME280;66825;51.880;-0.518;2023-04-25T00:45:14;100614.16;;;17.40;38.51
39435;BME280;66825;51.880;-0.518;2023-04-25T00:47:41;100618.81;;;17.40;38.47
39435;BME280;66825;51.880;-0.518;2023-04-25T00:50:08;100616.66;;;17.37;38.56
39435;BME280;66825;51.880;-0.518;2023-04-25T00:52:33;100620.69;;;17.39;38.88
39435;BME280;66825;51.880;-0.518;2023-04-25T00:54:59;100625.34;;;17.39;38.65
39435;BME280;66825;51.880;-0.518;2023-04-25T00:57:25;100624.31;;;17.35;38.37
39435;BME280;66825;51.880;-0.518;2023-04-25T00:59:51;100607.59;;;17.22;38.74
39435;BME280;66825;51.880;-0.518;2023-04-25T01:02:18;100619.69;;;17.35;38.78
39435;BME280;66825;51.880;-0.518;2023-04-25T01:04:46;100629.75;;;17.35;38.59
39435;BME280;66825;51.880;-0.518;2023-04-25T01:07:12;100634.41;;;17.34;38.54
39435;BME280;66825;51.880;-0.518;2023-04-25T01:09:39;100633.56;;;17.34;38.43
39435;BME280;66825;51.880;-0.518;2023-04-25T01:12:04;100639.03;;;17.34;38.40
39435;BME280;66825;51.880;-0.518;2023-04-25T01:14:31;100631.31;;;17.22;38.48
39435;BME280;66825;51.880;-0.518;2023-04-25T01:16:56;100642.03;;;17.32;38.34
39435;BME280;66825;51.880;-0.518;2023-04-25T01:19:23;100644.78;;;17.32;38.52
39435;BME280;66825;51.880;-0.518;2023-04-25T01:21:49;100636.06;;;17.30;38.51
39435;BME280;66825;51.880;-0.518;2023-04-25T01:24:14;100639.94;;;17.29;38.47
39435;BME280;66825;51.880;-0.518;2023-04-25T01:26:41;100644.84;;;17.27;38.56
39435;BME280;66825;51.880;-0.518;2023-04-25T01:29:10;100619.72;;;17.11;38.52
39435;BME280;66825;51.880;-0.518;2023-04-25T01:31:36;100645.66;;;17.27;38.82
39435;BME280;66825;51.880;-0.518;2023-04-25T01:34:02;100653.03;;;17.27;38.36
39435;BME280;66825;51.880;-0.518;2023-04-25T01:36:27;100636.53;;;17.18;38.58
39435;BME280;66825;51.880;-0.518;2023-04-25T01:38:53;100653.31;;;17.25;38.70
39435;BME280;66825;51.880;-0.518;2023-04-25T01:41:19;100645.94;;;17.26;38.29
39435;BME280;66825;51.880;-0.518;2023-04-25T01:43:44;100648.16;;;17.24;38.61
39435;BME280;66825;51.880;-0.518;2023-04-25T01:46:11;100658.25;;;17.23;38.39
39435;BME280;66825;51.880;-0.518;2023-04-25T01:48:36;100656.91;;;17.21;38.35
39435;BME280;66825;51.880;-0.518;2023-04-25T01:51:02;100664.00;;;17.22;38.68
39435;BME280;66825;51.880;-0.518;2023-04-25T01:53:28;100661.25;;;17.22;38.30
39435;BME280;66825;51.880;-0.518;2023-04-25T01:55:53;100663.16;;;17.21;38.29
39435;BME280;66825;51.880;-0.518;2023-04-25T01:58:19;100661.84;;;17.19;38.43
39435;BME280;66825;51.880;-0.518;2023-04-25T02:00:44;100668.06;;;17.19;38.25
39435;BME280;66825;51.880;-0.518;2023-04-25T02:03:10;100651.50;;;17.15;38.46
39435;BME280;66825;51.880;-0.518;2023-04-25T02:05:37;100655.06;;;17.16;38.67
39435;BME280;66825;51.880;-0.518;2023-04-25T02:08:05;100661.31;;;17.17;38.71
39435;BME280;66825;51.880;-0.518;2023-04-25T02:10:31;100651.59;;;17.10;38.41
39435;BME280;66825;51.880;-0.518;2023-04-25T02:12:57;100665.72;;;17.12;38.16
39435;BME280;66825;51.880;-0.518;2023-04-25T02:15:23;100667.84;;;17.15;38.36
39435;BME280;66825;51.880;-0.518;2023-04-25T02:17:48;100663.50;;;17.14;38.34
39435;BME280;66825;51.880;-0.518;2023-04-25T02:20:14;100658.34;;;17.13;38.50
39435;BME280;66825;51.880;-0.518;2023-04-25T02:22:41;100657.56;;;17.12;38.74
39435;BME280;66825;51.880;-0.518;2023-04-25T02:25:07;100661.38;;;17.11;38.55
39435;BME280;66825;51.880;-0.518;2023-04-25T02:27:34;100656.00;;;17.06;38.59
39435;BME280;66825;51.880;-0.518;2023-04-25T02:30:00;100584.69;;;16.61;38.35
39435;BME280;66825;51.880;-0.518;2023-04-25T02:32:26;100656.59;;;17.03;38.23
39435;BME280;66825;51.880;-0.518;2023-04-25T02:34:52;100669.03;;;17.09;38.61
39435;BME280;66825;51.880;-0.518;2023-04-25T02:37:17;100651.72;;;17.00;38.54
39435;BME280;66825;51.880;-0.518;2023-04-25T02:39:43;100661.16;;;17.08;38.62
39435;BME280;66825;51.880;-0.518;2023-04-25T02:42:08;100668.50;;;17.07;38.59
39435;BME280;66825;51.880;-0.518;2023-04-25T02:44:34;100665.28;;;17.05;38.46
39435;BME280;66825;51.880;-0.518;2023-04-25T02:46:59;100666.91;;;17.06;38.50
39435;BME280;66825;51.880;-0.518;2023-04-25T02:49:25;100657.38;;;17.04;38.56
39435;BME280;66825;51.880;-0.518;2023-04-25T02:51:51;100651.94;;;17.04;38.50
39435;BME280;66825;51.880;-0.518;2023-04-25T02:54:16;100661.22;;;17.03;38.29
39435;BME280;66825;51.880;-0.518;2023-04-25T02:56:41;100665.84;;;17.02;38.38
39435;BME280;66825;51.880;-0.518;2023-04-25T02:59:07;100637.44;;;16.84;38.37
39435;BME280;66825;51.880;-0.518;2023-04-25T03:01:32;100666.94;;;17.01;38.64
39435;BME280;66825;51.880;-0.518;2023-04-25T03:03:58;100617.03;;;16.62;38.45
39435;BME280;66825;51.880;-0.518;2023-04-25T03:06:23;100667.56;;;16.93;38.48
39435;BME280;66825;51.880;-0.518;2023-04-25T03:08:49;100648.09;;;16.80;38.52
39435;BME280;66825;51.880;-0.518;2023-04-25T03:11:14;100667.00;;;16.96;38.41
39435;BME280;66825;51.880;-0.518;2023-04-25T03:13:40;100677.91;;;16.96;38.69
39435;BME280;66825;51.880;-0.518;2023-04-25T03:16:05;100669.72;;;16.96;38.50
39435;BME280;66825;51.880;-0.518;2023-04-25T03:18:31;100675.47;;;16.94;38.51
39435;BME280;66825;51.880;-0.518;2023-04-25T03:20:57;100675.47;;;16.94;38.16
39435;BME280;66825;51.880;-0.518;2023-04-25T03:23:22;100679.00;;;16.95;38.43
39435;BME280;66825;51.880;-0.518;2023-04-25T03:25:47;100686.63;;;16.93;38.33
39435;BME280;66825;51.880;-0.518;2023-04-25T03:28:14;100677.94;;;16.91;38.38
39435;BME280;66825;51.880;-0.518;2023-04-25T03:30:40;100691.28;;;16.92;38.07
39435;BME280;66825;51.880;-0.518;2023-04-25T03:33:05;100688.81;;;16.91;38.32
39435;BME280;66825;51.880;-0.518;2023-04-25T03:35:30;100682.53;;;16.90;38.04
39435;BME280;66825;51.880;-0.518;2023-04-25T03:37:56;100680.91;;;16.89;38.18
39435;BME280;66825;51.880;-0.518;2023-04-25T03:40:21;100686.38;;;16.89;38.62
39435;BME280;66825;51.880;-0.518;2023-04-25T03:42:47;100690.22;;;16.88;38.32
39435;BME280;66825;51.880;-0.518;2023-04-25T03:45:12;100627.84;;;16.43;38.23
39435;BME280;66825;51.880;-0.518;2023-04-25T03:47:38;100682.94;;;16.78;38.21
39435;BME280;66825;51.880;-0.518;2023-04-25T03:50:03;100702.53;;;16.80;38.33
39435;BME280;66825;51.880;-0.518;2023-04-25T03:52:29;100710.63;;;16.86;38.40
39435;BME280;66825;51.880;-0.518;2023-04-25T03:54:55;100711.75;;;16.85;38.43
39435;BME280;66825;51.880;-0.518;2023-04-25T03:57:20;100714.47;;;16.85;38.14
39435;BME280;66825;51.880;-0.518;2023-04-25T03:59:45;100709.28;;;16.83;38.48
39435;BME280;66825;51.880;-0.518;2023-04-25T04:02:11;100709.59;;;16.81;38.15
39435;BME280;66825;51.880;-0.518;2023-04-25T04:04:36;100715.84;;;16.82;38.28
39435;BME280;66825;51.880;-0.518;2023-04-25T04:07:02;100694.50;;;16.70;38.19
39435;BME280;66825;51.880;-0.518;2023-04-25T04:09:28;100713.41;;;16.80;38.30
39435;BME280;66825;51.880;-0.518;2023-04-25T04:11:53;100706.94;;;16.76;38.48
39435;BME280;66825;51.880;-0.518;2023-04-25T04:14:19;100713.41;;;16.80;38.41
39435;BME280;66825;51.880;-0.518;2023-04-25T04:16:44;100711.78;;;16.79;38.31
39435;BME280;66825;51.880;-0.518;2023-04-25T04:19:10;100720.25;;;16.78;38.13
39435;BME280;66825;51.880;-0.518;2023-04-25T04:21:36;100726.47;;;16.78;38.26
39435;BME280;66825;51.880;-0.518;2023-04-25T04:24:01;100718.63;;;16.77;38.46
39435;BME280;66825;51.880;-0.518;2023-04-25T04:26:27;100637.34;;;16.16;38.38
39435;BME280;66825;51.880;-0.518;2023-04-25T04:28:53;100737.13;;;16.75;38.39
39435;BME280;66825;51.880;-0.518;2023-04-25T04:31:22;100730.88;;;16.74;38.11
39435;BME280;66825;51.880;-0.518;2023-04-25T04:33:49;100728.97;;;16.75;38.05
39435;BME280;66825;51.880;-0.518;2023-04-25T04:36:15;100724.66;;;16.74;38.29
39435;BME280;66825;51.880;-0.518;2023-04-25T04:38:41;100734.72;;;16.73;38.36
39435;BME280;66825;51.880;-0.518;2023-04-25T04:41:07;100744.78;;;16.73;38.00
39435;BME280;66825;51.880;-0.518;2023-04-25T04:43:33;100740.44;;;16.72;37.88
39435;BME280;66825;51.880;-0.518;2023-04-25T04:46:00;100730.19;;;16.63;38.33
39435;BME280;66825;51.880;-0.518;2023-04-25T04:48:26;100746.97;;;16.71;38.19
39435;BME280;66825;51.880;-0.518;2023-04-25T04:50:52;100747.28;;;16.69;38.39
39435;BME280;66825;51.880;-0.518;2023-04-25T04:53:17;100747.53;;;16.67;38.34
39435;BME280;66825;51.880;-0.518;2023-04-25T04:55:43;100752.72;;;16.69;38.05
39435;BME280;66825;51.880;-0.518;2023-04-25T04:58:09;100753.81;;;16.68;38.02
39435;BME280;66825;51.880;-0.518;2023-04-25T05:00:35;100763.84;;;16.67;38.14
39435;BME280;66825;51.880;-0.518;2023-04-25T05:03:00;100769.31;;;16.67;38.22
39435;BME280;66825;51.880;-0.518;2023-04-25T05:05:26;100764.97;;;16.66;37.98
39435;BME280;66825;51.880;-0.518;2023-04-25T05:07:51;100762.53;;;16.65;38.31
39435;BME280;66825;51.880;-0.518;2023-04-25T05:10:18;100773.41;;;16.65;38.07
39435;BME280;66825;51.880;-0.518;2023-04-25T05:12:44;100768.56;;;16.62;38.27
39435;BME280;66825;51.880;-0.518;2023-04-25T05:15:10;100731.03;;;16.29;38.15
39435;BME280;66825;51.880;-0.518;2023-04-25T05:17:35;100789.22;;;16.63;38.16
39435;BME280;66825;51.880;-0.518;2023-04-25T05:20:01;100787.59;;;16.62;38.13
39435;BME280;66825;51.880;-0.518;2023-04-25T05:22:27;100798.47;;;16.62;38.05
39435;BME280;66825;51.880;-0.518;2023-04-25T05:24:52;100809.38;;;16.62;38.21
39435;BME280;66825;51.880;-0.518;2023-04-25T05:27:18;100777.41;;;16.43;38.03
39435;BME280;66825;51.880;-0.518;2023-04-25T05:29:44;100802.59;;;16.59;37.74
39435;BME280;66825;51.880;-0.518;2023-04-25T05:32:10;100809.13;;;16.58;38.01
39435;BME280;66825;51.880;-0.518;2023-04-25T05:34:36;100811.00;;;16.58;38.00
39435;BME280;66825;51.880;-0.518;2023-04-25T05:37:02;100815.66;;;16.57;38.17
39435;BME280;66825;51.880;-0.518;2023-04-25T05:39:27;100809.38;;;16.57;38.04
39435;BME280;66825;51.880;-0.518;2023-04-25T05:41:53;100816.50;;;16.52;38.11
39435;BME280;66825;51.880;-0.518;2023-04-25T05:44:18;100827.63;;;16.56;38.31
39435;BME280;66825;51.880;-0.518;2023-04-25T05:46:44;100815.13;;;16.55;38.11
39435;BME280;66825;51.880;-0.518;2023-04-25T05:49:09;100825.19;;;16.55;37.94
39435;BME280;66825;51.880;-0.518;2023-04-25T05:51:35;100824.66;;;16.52;38.11
39435;BME280;66825;51.880;-0.518;2023-04-25T05:54:00;100798.66;;;16.36;38.02
39435;BME280;66825;51.880;-0.518;2023-04-25T05:56:26;100829.00;;;16.54;38.22
39435;BME280;66825;51.880;-0.518;2023-04-25T05:58:51;100829.31;;;16.52;38.24
39435;BME280;66825;51.880;-0.518;2023-04-25T06:01:17;100838.25;;;16.52;38.21
39435;BME280;66825;51.880;-0.518;2023-04-25T06:03:42;100835.28;;;16.49;38.26
39435;BME280;66825;51.880;-0.518;2023-04-25T06:06:08;100831.19;;;16.51;37.73
39435;BME280;66825;51.880;-0.518;2023-04-25T06:08:34;100826.84;;;16.50;38.24
39435;BME280;66825;51.880;-0.518;2023-04-25T06:11:00;100828.75;;;16.50;37.87
39435;BME280;66825;51.880;-0.518;2023-04-25T06:13:25;100819.78;;;16.49;38.23
39435;BME280;66825;51.880;-0.518;2023-04-25T06:15:51;100816.25;;;16.49;38.09
39435;BME280;66825;51.880;-0.518;2023-04-25T06:18:16;100828.22;;;16.48;38.00
39435;BME280;66825;51.880;-0.518;2023-04-25T06:20:42;100841.81;;;16.48;37.79
39435;BME280;66825;51.880;-0.518;2023-04-25T06:23:07;100842.13;;;16.46;37.67
39435;BME280;66825;51.880;-0.518;2023-04-25T06:25:32;100844.84;;;16.46;38.06
39435;BME280;66825;51.880;-0.518;2023-04-25T06:27:58;100840.19;;;16.47;37.87
39435;BME280;66825;51.880;-0.518;2023-04-25T06:30:23;100846.72;;;16.46;37.98
39435;BME280;66825;51.880;-0.518;2023-04-25T06:32:51;100856.81;;;16.45;38.08
39435;BME280;66825;51.880;-0.518;2023-04-25T06:35:18;100855.97;;;16.45;38.22
39435;BME280;66825;51.880;-0.518;2023-04-25T06:37:44;100859.53;;;16.45;38.02
39435;BME280;66825;51.880;-0.518;2023-04-25T06:40:09;100854.38;;;16.39;38.03
39435;BME280;66825;51.880;-0.518;2023-04-25T06:42:35;100870.66;;;16.49;38.06
39435;BME280;66825;51.880;-0.518;2023-04-25T06:45:01;100794.81;;;16.02;37.77
39435;BME280;66825;51.880;-0.518;2023-04-25T06:47:26;100867.63;;;16.50;37.93
39435;BME280;66825;51.880;-0.518;2023-04-25T06:49:51;100871.16;;;16.56;37.82
39435;BME280;66825;51.880;-0.518;2023-04-25T06:52:17;100873.56;;;16.58;37.71
39435;BME280;66825;51.880;-0.518;2023-04-25T06:54:43;100878.41;;;16.66;37.48
39435;BME280;66825;51.880;-0.518;2023-04-25T06:57:09;100873.75;;;16.72;37.53
39435;BME280;66825;51.880;-0.518;2023-04-25T06:59:34;100846.91;;;16.60;37.72
39435;BME280;66825;51.880;-0.518;2023-04-25T07:02:00;100870.69;;;16.83;37.67
39435;BME280;66825;51.880;-0.518;2023-04-25T07:04:25;100825.94;;;16.60;37.63
39435;BME280;66825;51.880;-0.518;2023-04-25T07:06:51;100871.44;;;16.94;37.39
39435;BME280;66825;51.880;-0.518;2023-04-25T07:09:16;100870.03;;;16.97;37.65
39435;BME280;66825;51.880;-0.518;2023-04-25T07:11:42;100875.72;;;17.01;37.47
39435;BME280;66825;51.880;-0.518;2023-04-25T07:14:07;100888.97;;;17.12;37.14
39435;BME280;66825;51.880;-0.518;2023-04-25T07:16:33;100881.84;;;17.17;37.29
39435;BME280;66825;51.880;-0.518;2023-04-25T07:18:58;100888.06;;;17.22;37.29
39435;BME280;66825;51.880;-0.518;2023-04-25T07:21:24;100891.03;;;17.26;37.04
39435;BME280;66825;51.880;-0.518;2023-04-25T07:23:50;100890.97;;;17.31;37.24
39435;BME280;66825;51.880;-0.518;2023-04-25T07:26:16;100887.97;;;17.33;37.04
39435;BME280;66825;51.880;-0.518;2023-04-25T07:28:42;100814.00;;;16.91;36.90
39435;BME280;66825;51.880;-0.518;2023-04-25T07:31:08;100877.25;;;17.41;37.11
39435;BME280;66825;51.880;-0.518;2023-04-25T07:33:34;100892.72;;;17.46;36.88
39435;BME280;66825;51.880;-0.518;2023-04-25T07:36:00;100878.88;;;17.42;37.07
39435;BME280;66825;51.880;-0.518;2023-04-25T07:38:25;100891.56;;;17.52;36.93
39435;BME280;66825;51.880;-0.518;2023-04-25T07:40:51;100894.84;;;17.54;36.74
39435;BME280;66825;51.880;-0.518;2023-04-25T07:43:16;100890.47;;;17.53;36.71
39435;BME280;66825;51.880;-0.518;2023-04-25T07:45:45;100885.03;;;17.53;36.62
39435;BME280;66825;51.880;-0.518;2023-04-25T07:48:13;100889.72;;;17.48;36.72
39435;BME280;66825;51.880;-0.518;2023-04-25T07:50:41;100869.75;;;17.28;36.96
39435;BME280;66825;51.880;-0.518;2023-04-25T07:53:06;100906.75;;;17.58;36.68
39435;BME280;66825;51.880;-0.518;2023-04-25T07:55:32;100910.81;;;17.61;36.56
39435;BME280;66825;51.880;-0.518;2023-04-25T07:57:57;100923.03;;;17.63;36.46
39435;BME280;66825;51.880;-0.518;2023-04-25T08:00:23;100911.88;;;17.65;36.33
39435;BME280;66825;51.880;-0.518;2023-04-25T08:02:48;100907.06;;;17.57;36.44
39435;BME280;66825;51.880;-0.518;2023-04-25T08:05:16;100920.28;;;17.69;36.60
39435;BME280;66825;51.880;-0.518;2023-04-25T08:07:41;100918.66;;;17.68;36.58
39435;BME280;66825;51.880;-0.518;2023-04-25T08:10:07;100910.81;;;17.61;36.23
39435;BME280;66825;51.880;-0.518;2023-04-25T08:12:33;100932.78;;;17.70;36.12
39435;BME280;66825;51.880;-0.518;2023-04-25T08:14:58;100940.69;;;17.71;36.33
39435;BME280;66825;51.880;-0.518;2023-04-25T08:17:24;100931.13;;;17.74;36.76
39435;BME280;66825;51.880;-0.518;2023-04-25T08:19:49;100946.00;;;17.82;36.63
39435;BME280;66825;51.880;-0.518;2023-04-25T08:22:15;100948.97;;;17.85;37.85
39435;BME280;66825;51.880;-0.518;2023-04-25T08:24:41;100939.47;;;17.83;36.97
39435;BME280;66825;51.880;-0.518;2023-04-25T08:27:07;100945.13;;;17.91;36.66
39435;BME280;66825;51.880;-0.518;2023-04-25T08:29:33;100930.19;;;17.84;36.91
39435;BME280;66825;51.880;-0.518;2023-04-25T08:32:00;100951.78;;;18.04;37.33
39435;BME280;66825;51.880;-0.518;2023-04-25T08:34:25;100955.84;;;18.07;37.28
39435;BME280;66825;51.880;-0.518;2023-04-25T08:36:51;100933.31;;;18.01;38.02
39435;BME280;66825;51.880;-0.518;2023-04-25T08:39:16;100956.53;;;18.18;38.19
39435;BME280;66825;51.880;-0.518;2023-04-25T08:41:42;100957.06;;;18.20;37.32
39435;BME280;66825;51.880;-0.518;2023-04-25T08:44:10;100884.44;;;17.81;37.09
39435;BME280;66825;51.880;-0.518;2023-04-25T08:46:38;100954.25;;;18.25;36.98
39435;BME280;66825;51.880;-0.518;2023-04-25T08:49:04;100933.91;;;18.17;36.75
39435;BME280;66825;51.880;-0.518;2023-04-25T08:51:32;100953.34;;;18.35;36.98
39435;BME280;66825;51.880;-0.518;2023-04-25T08:54:11;100950.00;;;18.38;36.51
39435;BME280;66825;51.880;-0.518;2023-04-25T08:56:44;100950.22;;;18.41;36.83
39435;BME280;66825;51.880;-0.518;2023-04-25T08:59:12;100954.00;;;18.46;36.99
39435;BME280;66825;51.880;-0.518;2023-04-25T09:01:37;100944.69;;;18.47;36.82
39435;BME280;66825;51.880;-0.518;2023-04-25T09:04:03;100940.50;;;18.54;36.93
39435;BME280;66825;51.880;-0.518;2023-04-25T09:06:29;100940.44;;;18.60;36.79
39435;BME280;66825;51.880;-0.518;2023-04-25T09:09:06;100940.06;;;18.66;36.85
39435;BME280;66825;51.880;-0.518;2023-04-25T09:11:32;100950.59;;;18.73;36.49
39435;BME280;66825;51.880;-0.518;2023-04-25T09:14:15;100940.72;;;18.77;36.35
39435;BME280;66825;51.880;-0.518;2023-04-25T09:17:07;100937.13;;;18.82;36.35
39435;BME280;66825;51.880;-0.518;2023-04-25T09:19:36;100933.78;;;18.85;36.37
39435;BME280;66825;51.880;-0.518;2023-04-25T09:22:05;100937.56;;;18.89;36.51
39435;BME280;66825;51.880;-0.518;2023-04-25T09:24:39;100921.22;;;18.84;36.49
39435;BME280;66825;51.880;-0.518;2023-04-25T09:27:06;100932.81;;;18.95;36.76
39435;BME280;66825;51.880;-0.518;2023-04-25T09:29:36;100929.53;;;18.98;36.39
39435;BME280;66825;51.880;-0.518;2023-04-25T09:34:54;100933.78;;;19.04;36.56
39435;BME280;66825;51.880;-0.518;2023-04-25T09:37:24;100933.78;;;19.04;36.25
39435;BME280;66825;51.880;-0.518;2023-04-25T09:39:52;100934.72;;;19.13;36.04
39435;BME280;66825;51.880;-0.518;2023-04-25T09:42:18;100942.09;;;19.13;35.61
39435;BME280;66825;51.880;-0.518;2023-04-25T09:44:46;100933.91;;;19.13;34.52
39435;BME280;66825;51.880;-0.518;2023-04-25T09:47:14;100933.41;;;19.11;33.27
39435;BME280;66825;51.880;-0.518;2023-04-25T09:49:41;100932.38;;;19.07;32.58
39435;BME280;66825;51.880;-0.518;2023-04-25T09:52:08;100942.50;;;19.06;32.40
39435;BME280;66825;51.880;-0.518;2023-04-25T09:54:34;100916.16;;;18.96;32.20
39435;BME280;66825;51.880;-0.518;2023-04-25T09:57:18;100926.00;;;18.97;31.60
39435;BME280;66825;51.880;-0.518;2023-04-25T09:59:51;100927.53;;;19.03;31.61
39435;BME280;66825;51.880;-0.518;2023-04-25T10:02:21;100922.06;;;19.03;32.68
39435;BME280;66825;51.880;-0.518;2023-04-25T10:04:51;100906.88;;;18.97;31.71
39435;BME280;66825;51.880;-0.518;2023-04-25T10:07:24;100923.06;;;19.08;32.75
39435;BME280;66825;51.880;-0.518;2023-04-25T10:10:02;100922.97;;;19.13;32.64
39435;BME280;66825;51.880;-0.518;2023-04-25T10:12:29;100925.13;;;19.16;32.96
39435;BME280;66825;51.880;-0.518;2023-04-25T10:14:57;100928.38;;;19.18;32.96
39435;BME280;66825;51.880;-0.518;2023-04-25T10:17:23;100932.72;;;19.19;32.94
39435;BME280;66825;51.880;-0.518;2023-04-25T10:19:48;100907.22;;;19.10;33.03
39435;BME280;66825;51.880;-0.518;2023-04-25T10:22:18;100932.84;;;19.28;33.32
39435;BME280;66825;51.880;-0.518;2023-04-25T10:24:46;100930.84;;;19.33;33.32
39435;BME280;66825;51.880;-0.518;2023-04-25T10:27:12;100931.06;;;19.37;33.23
39435;BME280;66825;51.880;-0.518;2023-04-25T10:29:38;100928.81;;;19.39;33.19
39435;BME280;66825;51.880;-0.518;2023-04-25T10:32:04;100930.38;;;19.45;33.58
39435;BME280;66825;51.880;-0.518;2023-04-25T10:34:43;100882.47;;;19.20;33.46
39435;BME280;66825;51.880;-0.518;2023-04-25T10:37:12;100937.47;;;19.60;33.33
39435;BME280;66825;51.880;-0.518;2023-04-25T10:39:39;100933.63;;;19.61;33.51
39435;BME280;66825;51.880;-0.518;2023-04-25T10:42:06;100927.44;;;19.56;32.99
39435;BME280;66825;51.880;-0.518;2023-04-25T10:44:33;100942.63;;;19.62;33.35
39435;BME280;66825;51.880;-0.518;2023-04-25T10:47:01;100937.34;;;19.65;33.48
39435;BME280;66825;51.880;-0.518;2023-04-25T10:54:51;100948.81;;;19.81;34.33
39435;BME280;66825;51.880;-0.518;2023-04-25T10:57:52;100944.69;;;19.84;33.32
39435;BME280;66825;51.880;-0.518;2023-04-25T11:00:22;100951.78;;;19.85;33.60
39435;BME280;66825;51.880;-0.518;2023-04-25T11:02:53;100940.03;;;19.84;33.54
39435;BME280;66825;51.880;-0.518;2023-04-25T11:07:52;100938.69;;;19.82;33.68
39435;BME280;66825;51.880;-0.518;2023-04-25T11:10:19;100942.25;;;19.82;33.82
39435;BME280;66825;51.880;-0.518;2023-04-25T11:12:46;100935.94;;;19.82;33.64
39435;BME280;66825;51.880;-0.518;2023-04-25T11:15:13;100930.78;;;19.80;32.88
39435;BME280;66825;51.880;-0.518;2023-04-25T11:17:39;100933.59;;;19.75;32.26
39435;BME280;66825;51.880;-0.518;2023-04-25T11:20:07;100930.06;;;19.75;31.80
39435;BME280;66825;51.880;-0.518;2023-04-25T11:22:38;100938.28;;;19.75;30.73
39435;BME280;66825;51.880;-0.518;2023-04-25T11:25:05;100930.38;;;19.73;30.71
39435;BME280;66825;51.880;-0.518;2023-04-25T11:27:31;100887.75;;;19.44;29.95
39435;BME280;66825;51.880;-0.518;2023-04-25T11:29:56;100871.34;;;19.30;30.06
39435;BME280;66825;51.880;-0.518;2023-04-25T11:32:22;100932.41;;;19.67;29.51
39435;BME280;66825;51.880;-0.518;2023-04-25T11:34:48;100937.34;;;19.65;27.97
39435;BME280;66825;51.880;-0.518;2023-04-25T11:37:14;100938.97;;;19.66;28.30
39435;BME280;66825;51.880;-0.518;2023-04-25T11:39:44;100942.22;;;19.68;27.74
39435;BME280;66825;51.880;-0.518;2023-04-25T11:42:10;100946.28;;;19.71;28.43
39435;BME280;66825;51.880;-0.518;2023-04-25T11:44:38;100948.69;;;19.73;28.05
39435;BME280;66825;51.880;-0.518;2023-04-25T11:47:03;100954.69;;;19.75;27.44
39435;BME280;66825;51.880;-0.518;2023-04-25T11:49:32;100868.91;;;19.29;26.96
39435;BME280;66825;51.880;-0.518;2023-04-25T11:51:57;100939.19;;;19.70;26.78
39435;BME280;66825;51.880;-0.518;2023-04-25T11:54:23;100944.13;;;19.68;27.08
39435;BME280;66825;51.880;-0.518;2023-04-25T11:56:48;100939.19;;;19.70;27.54
39435;BME280;66825;51.880;-0.518;2023-04-25T11:59:14;100953.69;;;19.71;28.05
39435;BME280;66825;51.880;-0.518;2023-04-25T12:01:41;100935.72;;;19.64;28.38
39435;BME280;66825;51.880;-0.518;2023-04-25T12:04:31;100937.34;;;19.65;28.59
39435;BME280;66825;51.880;-0.518;2023-04-25T12:06:57;100937.47;;;19.60;28.86
39435;BME280;66825;51.880;-0.518;2023-04-25T12:09:33;100945.88;;;19.64;28.88
39435;BME280;66825;51.880;-0.518;2023-04-25T12:12:00;100943.13;;;19.64;29.16
39435;BME280;66825;51.880;-0.518;2023-04-25T12:14:33;100947.50;;;19.65;29.29
39435;BME280;66825;51.880;-0.518;2023-04-25T12:17:01;100933.94;;;19.60;29.59
39435;BME280;66825;51.880;-0.518;2023-04-25T12:19:33;100943.13;;;19.64;29.64
39435;BME280;66825;51.880;-0.518;2023-04-25T12:22:00;100952.94;;;19.65;29.81
39435;BME280;66825;51.880;-0.518;2023-04-25T12:24:26;100938.97;;;19.66;30.12
39435;BME280;66825;51.880;-0.518;2023-04-25T12:27:06;100946.88;;;19.68;30.02
39435;BME280;66825;51.880;-0.518;2023-04-25T12:29:34;100943.03;;;19.69;30.21
39435;BME280;66825;51.880;-0.518;2023-04-25T12:31:59;100919.84;;;19.52;30.20
39435;BME280;66825;51.880;-0.518;2023-04-25T12:34:27;100940.91;;;19.66;30.11
39435;BME280;66825;51.880;-0.518;2023-04-25T12:36:54;100946.47;;;19.75;30.52
39435;BME280;66825;51.880;-0.518;2023-04-25T12:39:22;100923.28;;;19.58;29.95
39435;BME280;66825;51.880;-0.518;2023-04-25T12:41:48;100952.25;;;19.73;29.66
39435;BME280;66825;51.880;-0.518;2023-04-25T12:44:14;100931.47;;;19.58;29.61
39435;BME280;66825;51.880;-0.518;2023-04-25T12:46:40;100945.56;;;19.65;29.71
39435;BME280;66825;51.880;-0.518;2023-04-25T12:49:07;100950.31;;;19.74;30.08